createdAt,value
2018-12-12T00:02:11.183Z,9.10
2018-12-12T00:04:39.498Z,10.10
2018-12-12T00:07:08.273Z,10.43
2018-12-12T00:09:36.802Z,10.43
2018-12-12T00:12:05.444Z,10.43
2018-12-12T00:14:34.222Z,10.63
2018-12-12T00:17:03.345Z,11.87
2018-12-12T00:19:32.412Z,12.00
2018-12-12T00:22:01.723Z,12.53
2018-12-12T00:24:30.224Z,11.37
2018-12-12T00:26:58.529Z,12.00
2018-12-12T00:29:26.803Z,11.10
2018-12-12T00:31:56.154Z,11.67
2018-12-12T00:34:25.494Z,10.20
2018-12-12T00:36:54.026Z,9.67
2018-12-12T00:39:22.315Z,10.07
2018-12-12T00:44:44.456Z,10.07
2018-12-12T00:47:13.089Z,10.57
2018-12-12T00:49:42.428Z,10.43
2018-12-12T00:52:10.727Z,9.67
2018-12-12T00:54:39.718Z,10.47
2018-12-12T00:57:08.305Z,10.33
2018-12-12T00:59:37.323Z,11.17
2018-12-12T01:02:06.681Z,11.00
2018-12-12T01:04:35.017Z,11.30
2018-12-12T01:07:03.439Z,11.17
2018-12-12T01:09:32.025Z,11.17
2018-12-12T01:12:05.399Z,11.10
2018-12-12T01:14:34.112Z,10.53
2018-12-12T01:17:02.387Z,12.07
2018-12-12T01:19:31.284Z,13.30
2018-12-12T01:22:00.588Z,11.23
2018-12-12T01:24:28.862Z,12.00
2018-12-12T01:26:57.170Z,12.60
2018-12-12T01:29:25.478Z,12.03
2018-12-12T01:31:54.325Z,12.03
2018-12-12T01:34:22.689Z,11.67
2018-12-12T01:36:51.860Z,12.73
2018-12-12T01:39:20.389Z,11.83
2018-12-12T01:41:49.607Z,12.00
2018-12-12T01:44:17.922Z,12.60
2018-12-12T01:46:46.444Z,12.10
2018-12-12T01:49:14.707Z,12.40
2018-12-12T01:51:42.979Z,12.07
2018-12-12T01:54:11.889Z,12.20
2018-12-12T01:56:40.187Z,13.50
2018-12-12T01:59:17.458Z,13.27
2018-12-12T02:01:45.778Z,11.67
2018-12-12T02:04:14.860Z,12.33
2018-12-12T02:06:43.173Z,13.43
2018-12-12T02:09:18.512Z,13.07
2018-12-12T02:11:47.112Z,14.57
2018-12-12T02:14:16.386Z,13.67
2018-12-12T02:16:44.710Z,15.60
2018-12-12T02:19:14.016Z,12.00
2018-12-12T02:21:43.101Z,12.37
2018-12-12T02:24:11.637Z,10.83
2018-12-12T02:26:40.227Z,12.43
2018-12-12T02:29:09.362Z,12.93
2018-12-12T02:31:40.749Z,12.53
2018-12-12T02:34:09.085Z,11.70
2018-12-12T02:36:37.650Z,12.77
2018-12-12T02:39:09.029Z,11.80
2018-12-12T02:41:37.334Z,10.73
2018-12-12T02:44:05.907Z,11.30
2018-12-12T02:46:34.235Z,11.73
2018-12-12T02:49:02.634Z,11.70
2018-12-12T02:51:37.670Z,11.57
2018-12-12T02:54:06.008Z,11.73
2018-12-12T02:56:34.294Z,10.90
2018-12-12T02:59:02.781Z,11.17
2018-12-12T03:01:32.045Z,10.67
2018-12-12T03:04:00.904Z,10.67
2018-12-12T03:06:29.224Z,11.10
2018-12-12T03:08:57.526Z,10.33
2018-12-12T03:11:25.876Z,10.70
2018-12-12T03:13:55.047Z,11.03
2018-12-12T03:16:25.140Z,11.50
2018-12-12T03:18:54.090Z,11.13
2018-12-12T03:21:22.648Z,11.10
2018-12-12T03:23:51.401Z,11.20
2018-12-12T03:26:19.935Z,10.73
2018-12-12T03:28:48.692Z,12.23
2018-12-12T03:31:19.208Z,11.13
2018-12-12T03:33:47.780Z,12.50
2018-12-12T03:36:16.082Z,12.73
2018-12-12T03:38:44.642Z,12.50
2018-12-12T03:41:13.264Z,12.20
2018-12-12T03:43:41.558Z,11.43
2018-12-12T03:46:10.629Z,11.40
2018-12-12T03:48:39.198Z,11.10
2018-12-12T03:51:08.099Z,11.07
2018-12-12T03:56:29.197Z,10.13
2018-12-12T03:58:57.786Z,10.13
2018-12-12T04:01:26.070Z,9.80
2018-12-12T04:03:57.458Z,10.73
2018-12-12T04:06:26.235Z,9.77
2018-12-12T04:08:54.573Z,10.17
2018-12-12T04:11:23.082Z,10.87
2018-12-12T04:13:51.388Z,9.97
2018-12-12T04:16:20.441Z,9.80
2018-12-12T04:18:49.310Z,10.53
2018-12-12T04:21:17.852Z,10.30
2018-12-12T04:23:46.210Z,10.63
2018-12-12T04:26:15.784Z,11.00
2018-12-12T04:28:44.132Z,10.80
2018-12-12T04:31:12.397Z,11.40
2018-12-12T04:33:40.699Z,11.67
2018-12-12T04:36:09.049Z,11.83
2018-12-12T04:38:37.844Z,11.70
2018-12-12T04:41:06.167Z,13.27
2018-12-12T04:43:35.059Z,12.13
2018-12-12T04:46:03.358Z,11.10
2018-12-12T04:48:31.645Z,13.23
2018-12-12T04:51:00.030Z,12.97
2018-12-12T04:53:29.124Z,13.57
2018-12-12T04:55:57.520Z,14.03
2018-12-12T04:58:26.627Z,13.33
2018-12-12T05:00:54.935Z,13.93
2018-12-12T05:03:23.206Z,12.87
2018-12-12T05:05:51.858Z,11.87
2018-12-12T05:08:20.405Z,12.53
2018-12-12T05:10:49.013Z,11.30
2018-12-12T05:13:17.323Z,12.40
2018-12-12T05:21:33.046Z,13.07
2018-12-12T05:24:01.325Z,13.10
2018-12-12T05:26:29.648Z,12.67
2018-12-12T05:28:58.266Z,13.60
2018-12-12T05:31:30.014Z,12.63
2018-12-12T05:33:58.584Z,13.10
2018-12-12T05:36:26.907Z,13.03
2018-12-12T05:38:55.810Z,13.30
2018-12-12T05:41:24.105Z,12.40
2018-12-12T05:46:45.632Z,11.73
2018-12-12T05:49:13.992Z,11.67
2018-12-12T05:51:42.817Z,11.63
2018-12-12T05:54:11.110Z,11.67
2018-12-12T05:56:39.419Z,11.83
2018-12-12T05:59:07.753Z,12.03
2018-12-12T06:01:37.405Z,11.57
2018-12-12T06:04:06.034Z,12.50
2018-12-12T06:06:34.371Z,11.00
2018-12-12T06:09:14.699Z,10.97
2018-12-12T06:11:43.367Z,11.17
2018-12-12T06:14:12.202Z,11.27
2018-12-12T06:16:40.516Z,10.70
2018-12-12T06:19:09.743Z,10.73
2018-12-12T06:21:38.124Z,10.60
2018-12-12T06:26:40.921Z,11.65
2018-12-12T06:29:09.500Z,11.23
2018-12-12T06:31:38.096Z,11.03
2018-12-12T06:34:06.629Z,11.90
2018-12-12T06:36:36.303Z,11.37
2018-12-12T06:39:07.389Z,11.80
2018-12-12T06:41:35.879Z,11.80
2018-12-12T06:44:04.511Z,11.07
2018-12-12T06:46:33.329Z,11.50
2018-12-12T06:49:01.666Z,12.00
2018-12-12T06:51:29.967Z,12.27
2018-12-12T06:53:58.293Z,12.37
2018-12-12T06:56:26.614Z,11.57
2018-12-12T06:58:54.953Z,12.10
2018-12-12T07:01:23.679Z,12.97
2018-12-12T07:03:52.285Z,13.30
2018-12-12T07:06:20.542Z,13.07
2018-12-12T07:08:49.010Z,11.50
2018-12-12T07:11:17.542Z,12.37
2018-12-12T07:13:46.081Z,12.60
2018-12-12T07:16:14.745Z,12.10
2018-12-12T07:18:43.073Z,11.83
2018-12-12T07:21:12.071Z,11.63
2018-12-12T07:26:14.790Z,9.93
2018-12-12T07:28:43.353Z,10.80
2018-12-12T07:31:13.707Z,10.30
2018-12-12T07:33:42.320Z,9.50
2018-12-12T07:36:10.635Z,10.37
2018-12-12T07:38:39.188Z,10.10
2018-12-12T07:41:07.467Z,10.10
2018-12-12T07:43:45.287Z,9.80
2018-12-12T07:46:13.967Z,10.60
2018-12-12T07:48:42.266Z,10.67
2018-12-12T07:51:11.541Z,11.33
2018-12-12T07:53:39.834Z,11.53
2018-12-12T07:56:08.149Z,11.43
2018-12-12T07:58:36.493Z,12.00
2018-12-12T08:03:39.340Z,12.00
2018-12-12T08:06:08.197Z,12.77
2018-12-12T08:08:36.486Z,13.70
2018-12-12T08:11:04.853Z,12.23
2018-12-12T08:13:33.977Z,12.63
2018-12-12T08:16:02.583Z,12.27
2018-12-12T08:18:31.113Z,12.60
2018-12-12T08:20:59.416Z,13.07
2018-12-12T08:23:28.505Z,13.93
2018-12-12T08:25:57.182Z,12.60
2018-12-12T08:28:28.736Z,13.07
2018-12-12T08:30:57.482Z,13.27
2018-12-12T08:33:29.321Z,14.30
2018-12-12T08:35:57.854Z,14.80
2018-12-12T08:38:27.277Z,15.00
2018-12-12T08:40:55.578Z,15.03
2018-12-12T08:43:24.296Z,16.40
2018-12-12T08:45:53.895Z,16.27
2018-12-12T08:53:38.343Z,17.67
2018-12-12T08:56:07.300Z,18.57
2018-12-12T08:58:35.599Z,18.57
2018-12-12T09:01:03.879Z,18.53
2018-12-12T09:03:32.235Z,18.60
2018-12-12T09:06:00.816Z,18.80
2018-12-12T09:08:32.864Z,19.50
2018-12-12T09:11:01.828Z,19.40
2018-12-12T09:13:30.376Z,18.90
2018-12-12T09:16:10.933Z,19.67
2018-12-12T09:18:39.237Z,18.87
2018-12-12T09:21:07.586Z,18.20
2018-12-12T09:23:35.893Z,19.43
2018-12-12T09:26:08.047Z,19.03
2018-12-12T09:28:36.614Z,17.10
2018-12-12T09:31:05.930Z,16.37
2018-12-12T09:33:34.255Z,15.67
2018-12-12T09:36:02.550Z,15.57
2018-12-12T09:38:30.834Z,14.87
2018-12-12T09:40:59.464Z,13.77
2018-12-12T09:43:28.030Z,13.23
2018-12-12T09:45:56.855Z,13.57
2018-12-12T09:48:25.355Z,12.40
2018-12-12T09:50:53.922Z,13.27
2018-12-12T09:53:23.432Z,12.70
2018-12-12T09:55:51.752Z,12.07
2018-12-12T09:58:20.482Z,12.43
2018-12-12T10:00:49.104Z,12.07
2018-12-12T10:03:17.663Z,11.33
2018-12-12T10:05:46.203Z,11.17
2018-12-12T10:08:14.844Z,10.53
2018-12-12T10:10:44.284Z,11.10
2018-12-12T10:13:12.572Z,10.30
2018-12-12T10:15:41.547Z,10.83
2018-12-12T10:18:09.864Z,10.97
2018-12-12T10:20:38.483Z,10.53
2018-12-12T10:23:07.009Z,9.60
2018-12-12T10:25:36.200Z,8.87
2018-12-12T10:28:05.040Z,9.50
2018-12-12T10:30:33.313Z,9.10
2018-12-12T10:33:01.644Z,9.33
2018-12-12T10:38:04.149Z,9.73
2018-12-12T10:40:32.936Z,8.90
2018-12-12T10:43:02.630Z,9.03
2018-12-12T10:45:30.966Z,9.80
2018-12-12T10:47:59.250Z,10.07
2018-12-12T10:50:27.870Z,10.93
2018-12-12T10:52:56.741Z,9.93
2018-12-12T10:55:25.335Z,10.10
2018-12-12T10:57:53.701Z,9.97
2018-12-12T11:00:22.965Z,8.33
2018-12-12T11:03:57.080Z,8.83
2018-12-12T11:06:25.648Z,8.80
2018-12-12T11:08:53.925Z,8.97
2018-12-12T11:11:22.485Z,9.13
2018-12-12T11:13:50.891Z,8.83
2018-12-12T11:16:19.165Z,9.30
2018-12-12T11:18:48.710Z,9.50
2018-12-12T11:21:17.239Z,8.93
2018-12-12T11:23:46.271Z,10.00
2018-12-12T11:26:15.285Z,9.80
2018-12-12T11:28:43.585Z,9.07
2018-12-12T11:31:12.544Z,9.37
2018-12-12T11:33:40.864Z,9.20
2018-12-12T11:36:09.373Z,8.97
2018-12-12T11:38:38.044Z,8.63
2018-12-12T11:41:07.031Z,7.13
2018-12-12T11:43:35.363Z,7.13
2018-12-12T11:46:03.670Z,7.20
2018-12-12T11:48:32.725Z,6.80
2018-12-12T11:51:01.064Z,6.73
2018-12-12T11:53:30.004Z,7.33
2018-12-12T11:55:58.911Z,6.47
2018-12-12T11:58:27.213Z,6.77
2018-12-12T12:00:55.841Z,6.97
2018-12-12T12:03:24.160Z,6.73
2018-12-12T12:05:52.832Z,6.60
2018-12-12T12:08:21.154Z,7.17
2018-12-12T12:10:49.438Z,7.70
2018-12-12T12:13:17.742Z,6.87
2018-12-12T12:15:46.025Z,7.43
2018-12-12T12:18:14.344Z,7.17
2018-12-12T12:20:52.165Z,6.93
2018-12-12T12:23:20.792Z,7.13
2018-12-12T12:25:50.062Z,7.40
2018-12-12T12:28:18.353Z,7.93
2018-12-12T12:30:46.809Z,6.90
2018-12-12T12:33:15.719Z,8.13
2018-12-12T12:35:44.378Z,8.07
2018-12-12T12:38:13.097Z,7.43
2018-12-12T12:40:41.410Z,7.83
2018-12-12T12:43:10.265Z,6.90
2018-12-12T12:45:39.509Z,7.50
2018-12-12T12:48:08.245Z,6.80
2018-12-12T12:50:36.760Z,6.90
2018-12-12T12:53:05.063Z,5.90
2018-12-12T12:55:36.715Z,6.10
2018-12-12T12:58:05.367Z,7.20
2018-12-12T13:00:34.576Z,6.40
2018-12-12T13:03:03.235Z,7.03
2018-12-12T13:05:31.812Z,6.87
2018-12-12T13:08:00.134Z,6.40
2018-12-12T13:10:29.652Z,6.90
2018-12-12T13:12:58.433Z,6.13
2018-12-12T13:15:27.102Z,6.07
2018-12-12T13:17:55.400Z,6.33
2018-12-12T13:20:24.609Z,6.00
2018-12-12T13:22:53.164Z,6.20
2018-12-12T13:25:21.966Z,6.23
2018-12-12T13:27:50.693Z,5.80
2018-12-12T13:30:20.075Z,5.65
2018-12-12T13:32:48.734Z,6.57
2018-12-12T13:35:17.089Z,5.30
2018-12-12T13:37:45.759Z,5.57
2018-12-12T13:40:14.503Z,5.83
2018-12-12T13:42:42.847Z,5.33
2018-12-12T13:50:57.745Z,4.53
2018-12-12T13:53:26.075Z,4.97
2018-12-12T13:55:54.528Z,5.13
2018-12-12T13:58:23.684Z,4.80
2018-12-12T14:00:52.006Z,5.10
2018-12-12T14:03:25.355Z,5.37
2018-12-12T14:05:54.489Z,4.80
2018-12-12T14:08:23.096Z,4.50
2018-12-12T14:13:48.892Z,5.20
2018-12-12T14:16:18.011Z,5.27
2018-12-12T14:18:46.620Z,5.00
2018-12-12T14:21:18.227Z,5.07
2018-12-12T14:23:49.968Z,5.10
2018-12-12T14:26:18.274Z,5.43
2018-12-12T14:28:46.639Z,6.00
2018-12-12T14:31:15.003Z,5.60
2018-12-12T14:33:43.329Z,5.77
2018-12-12T14:36:11.992Z,5.30
2018-12-12T14:38:40.292Z,5.10
2018-12-12T14:41:08.587Z,5.83
2018-12-12T14:43:46.267Z,6.63
2018-12-12T14:46:14.601Z,5.60
2018-12-12T14:48:45.872Z,6.73
2018-12-12T14:51:14.421Z,6.90
2018-12-12T14:53:42.742Z,6.03
2018-12-12T14:56:11.442Z,5.73
2018-12-12T14:58:39.758Z,6.27
2018-12-12T15:01:08.066Z,6.13
2018-12-12T15:03:36.587Z,6.23
2018-12-12T15:06:04.905Z,5.00
2018-12-12T15:08:33.533Z,4.80
2018-12-12T15:11:01.906Z,4.90
2018-12-12T15:13:32.161Z,4.90
2018-12-12T15:16:00.736Z,4.57
2018-12-12T15:18:29.079Z,4.10
2018-12-12T15:20:57.359Z,4.83
2018-12-12T15:23:25.940Z,3.83
2018-12-12T15:25:54.855Z,3.97
2018-12-12T15:28:23.181Z,4.03
2018-12-12T15:30:52.415Z,4.40
2018-12-12T15:33:21.585Z,4.27
2018-12-12T15:35:51.104Z,4.20
2018-12-12T15:38:19.777Z,4.97
2018-12-12T15:40:48.513Z,4.90
2018-12-12T15:43:16.975Z,4.73
2018-12-12T15:45:46.405Z,4.20
2018-12-12T15:48:15.153Z,4.63
2018-12-12T15:50:43.642Z,5.53
2018-12-12T15:53:12.013Z,5.07
2018-12-12T15:55:40.318Z,4.77
2018-12-12T16:03:57.430Z,5.07
2018-12-12T16:06:26.186Z,5.10
2018-12-12T16:08:54.484Z,4.90
2018-12-12T16:11:26.196Z,4.80
2018-12-12T16:13:58.081Z,4.83
2018-12-12T16:16:26.558Z,4.67
2018-12-12T16:18:54.910Z,4.90
2018-12-12T16:21:23.824Z,5.07
2018-12-12T16:23:52.693Z,4.87
2018-12-12T16:26:26.640Z,5.77
2018-12-12T16:28:55.796Z,5.70
2018-12-12T16:31:24.365Z,5.00
2018-12-12T16:33:53.753Z,6.20
2018-12-12T16:36:22.214Z,5.70
2018-12-12T16:38:50.898Z,6.43
2018-12-12T16:41:19.315Z,6.47
2018-12-12T16:43:47.787Z,6.80
2018-12-12T16:46:16.151Z,5.73
2018-12-12T16:48:47.605Z,5.97
2018-12-12T16:51:16.042Z,6.77
2018-12-12T16:53:44.941Z,5.83
2018-12-12T16:56:22.905Z,6.80
2018-12-12T16:58:52.147Z,6.20
2018-12-12T17:01:23.761Z,6.23
2018-12-12T17:03:52.496Z,5.80
2018-12-12T17:06:21.396Z,6.23
2018-12-12T17:08:50.022Z,6.73
2018-12-12T17:11:18.444Z,6.43
2018-12-12T17:13:46.852Z,5.93
2018-12-12T17:16:15.771Z,6.60
2018-12-12T17:18:45.300Z,6.10
2018-12-12T17:21:22.916Z,7.07
2018-12-12T17:23:52.474Z,6.90
2018-12-12T17:26:22.913Z,6.77
2018-12-12T17:28:51.269Z,6.03
2018-12-12T17:31:19.610Z,6.20
2018-12-12T17:33:48.540Z,5.90
2018-12-12T17:36:16.893Z,5.80
2018-12-12T17:38:45.224Z,6.00
2018-12-12T17:41:17.122Z,5.00
2018-12-12T17:43:46.743Z,4.97
2018-12-12T17:46:15.701Z,4.40
2018-12-12T17:48:44.021Z,3.53
2018-12-12T17:51:13.145Z,4.13
2018-12-12T17:53:42.299Z,3.80
2018-12-12T17:56:11.575Z,4.00
2018-12-12T17:58:40.305Z,3.87
2018-12-12T18:01:09.613Z,3.90
2018-12-12T18:03:38.032Z,3.40
2018-12-12T18:09:00.702Z,3.53
2018-12-12T18:11:29.058Z,4.47
2018-12-12T18:13:57.655Z,4.13
2018-12-12T18:16:26.339Z,4.17
2018-12-12T18:18:58.040Z,5.43
2018-12-12T18:21:26.369Z,5.07
2018-12-12T18:24:04.518Z,5.30
2018-12-12T18:26:33.752Z,5.40
2018-12-12T18:29:02.566Z,5.03
2018-12-12T18:31:31.239Z,5.57
2018-12-12T18:33:59.584Z,5.20
2018-12-12T18:36:28.026Z,5.40
2018-12-12T18:38:56.612Z,5.47
2018-12-12T18:41:24.998Z,5.53
2018-12-12T18:43:53.380Z,5.63
2018-12-12T18:46:21.803Z,5.47
2018-12-12T18:48:50.196Z,5.07
2018-12-12T18:51:30.375Z,6.00
2018-12-12T18:53:59.120Z,5.67
2018-12-12T18:56:28.147Z,6.00
2018-12-12T18:58:56.630Z,5.90
2018-12-12T19:01:25.624Z,5.40
2018-12-12T19:03:54.165Z,6.33
2018-12-12T19:06:24.504Z,6.20
2018-12-12T19:08:57.404Z,5.97
2018-12-12T19:11:26.673Z,6.30
2018-12-12T19:13:55.350Z,6.03
2018-12-12T19:16:34.231Z,6.30
2018-12-12T19:19:03.473Z,6.73
2018-12-12T19:21:31.903Z,7.03
2018-12-12T19:26:35.340Z,7.63
2018-12-12T19:29:13.624Z,8.27
2018-12-12T19:31:42.241Z,8.00
2018-12-12T19:34:10.693Z,8.20
2018-12-12T19:36:39.843Z,8.13
2018-12-12T19:39:09.522Z,7.77
2018-12-12T19:41:40.909Z,7.83
2018-12-12T19:44:09.266Z,8.60
2018-12-12T19:46:37.621Z,8.87
2018-12-12T19:49:06.001Z,8.47
2018-12-12T19:51:34.454Z,7.57
2018-12-12T19:54:04.728Z,7.90
2018-12-12T19:56:33.389Z,8.10
2018-12-12T19:59:02.043Z,7.87
2018-12-12T20:01:30.381Z,8.93
2018-12-12T20:03:58.732Z,8.83
2018-12-12T20:06:27.612Z,8.53
2018-12-12T20:08:55.998Z,9.40
2018-12-12T20:11:24.888Z,9.17
2018-12-12T20:13:54.011Z,8.07
2018-12-12T20:16:22.392Z,8.07
2018-12-12T20:19:00.410Z,8.73
2018-12-12T20:21:29.292Z,8.27
2018-12-12T20:23:57.905Z,8.63
2018-12-12T20:29:26.790Z,9.07
2018-12-12T20:31:55.944Z,8.30
2018-12-12T20:34:24.601Z,9.20
2018-12-12T20:36:53.191Z,9.33
2018-12-12T20:39:21.625Z,8.90
2018-12-12T20:41:53.647Z,8.80
2018-12-12T20:44:31.712Z,8.90
2018-12-12T20:47:00.565Z,8.47
2018-12-12T20:49:29.798Z,9.13
2018-12-12T20:51:58.124Z,9.37
2018-12-12T20:54:26.520Z,9.93
2018-12-12T20:56:55.190Z,9.43
2018-12-12T20:59:23.626Z,8.40
2018-12-12T21:01:52.246Z,8.73
2018-12-12T21:04:20.643Z,9.67
2018-12-12T21:06:49.268Z,9.03
2018-12-12T21:09:17.612Z,9.47
2018-12-12T21:11:46.272Z,9.20
2018-12-12T21:14:14.690Z,8.93
2018-12-12T21:16:43.992Z,9.30
2018-12-12T21:19:12.577Z,8.93
2018-12-12T21:21:40.966Z,9.50
2018-12-12T21:24:09.333Z,9.03
2018-12-12T21:32:26.193Z,9.83
2018-12-12T21:34:55.398Z,9.60
2018-12-12T21:37:24.978Z,9.67
2018-12-12T21:39:53.567Z,10.03
2018-12-12T21:42:21.937Z,9.67
2018-12-12T21:44:50.367Z,10.23
2018-12-12T21:47:18.711Z,9.43
2018-12-12T21:49:47.176Z,10.20
2018-12-12T21:52:15.786Z,9.83
2018-12-12T21:54:51.537Z,10.00
2018-12-12T21:57:20.722Z,9.73
2018-12-12T21:59:52.346Z,10.73
2018-12-12T22:02:20.895Z,9.70
2018-12-12T22:04:49.508Z,9.80
2018-12-12T22:07:17.941Z,10.33
2018-12-12T22:09:47.167Z,10.50
2018-12-12T22:12:15.888Z,11.83
2018-12-12T22:14:44.494Z,11.40
2018-12-12T22:17:12.946Z,10.80
2018-12-12T22:19:41.328Z,10.37
2018-12-12T22:22:09.638Z,9.67
2018-12-12T22:24:37.970Z,10.53
2018-12-12T22:27:06.332Z,10.57
2018-12-12T22:29:35.603Z,10.37
2018-12-12T22:32:06.431Z,10.37
2018-12-12T22:34:37.896Z,11.40
2018-12-12T22:37:06.256Z,10.83
2018-12-12T22:39:38.720Z,10.90
2018-12-12T22:42:07.205Z,10.23
2018-12-12T22:44:35.913Z,10.53
2018-12-12T22:47:04.854Z,10.63
2018-12-12T22:49:33.183Z,11.07
2018-12-12T22:52:02.766Z,11.43
2018-12-12T22:54:31.748Z,11.07
2018-12-12T22:57:00.630Z,11.27
2018-12-12T22:59:29.219Z,10.03
2018-12-12T23:01:58.760Z,10.70
2018-12-12T23:07:02.714Z,10.17
2018-12-12T23:09:31.302Z,10.37
2018-12-12T23:15:13.282Z,9.70
2018-12-12T23:17:41.989Z,10.53
2018-12-12T23:20:14.704Z,10.13
2018-12-12T23:22:43.071Z,11.07
2018-12-12T23:25:11.599Z,10.60
2018-12-12T23:27:40.641Z,10.27
2018-12-12T23:30:09.828Z,11.20
2018-12-12T23:32:38.184Z,10.43
2018-12-12T23:35:06.986Z,11.07
2018-12-12T23:37:35.327Z,11.50
2018-12-12T23:40:04.100Z,11.13
2018-12-12T23:42:32.899Z,11.53
2018-12-12T23:45:01.849Z,12.27
2018-12-12T23:47:30.709Z,11.33
2018-12-12T23:49:59.033Z,12.47
2018-12-12T23:52:29.400Z,11.77
2018-12-12T23:54:58.823Z,10.70
2018-12-12T23:57:27.474Z,12.23
2018-12-12T23:59:59.756Z,11.80
